sensor_id;sensor_type;location;lat;lon;timestamp;temperature;humidity
18779;DHT22;9518;51.720;14.384;2023-01-16T00:00:18;4.20;99.90
18779;DHT22;9518;51.720;14.384;2023-01-16T00:02:46;4.10;99.90
18779;DHT22;9518;51.720;14.384;2023-01-16T00:05:15;4.10;99.90
18779;DHT22;9518;51.720;14.384;2023-01-16T00:07:42;4.10;99.90
18779;DHT22;9518;51.720;14.384;2023-01-16T00:10:12;4.00;99.90
18779;DHT22;9518;51.720;14.384;2023-01-16T00:12:41;4.10;99.90
18779;DHT22;9518;51.720;14.384;2023-01-16T00:15:08;4.10;99.90
18779;DHT22;9518;51.720;14.384;2023-01-16T00:17:35;4.10;99.90
18779;DHT22;9518;51.720;14.384;2023-01-16T00:20:03;4.10;99.90
18779;DHT22;9518;51.720;14.384;2023-01-16T00:22:30;4.20;99.90
18779;DHT22;9518;51.720;14.384;2023-01-16T00:24:57;4.10;99.90
18779;DHT22;9518;51.720;14.384;2023-01-16T00:27:24;4.00;1.00
18779;DHT22;9518;51.720;14.384;2023-01-16T00:29:52;3.80;1.00
18779;DHT22;9518;51.720;14.384;2023-01-16T00:32:19;3.80;1.00
18779;DHT22;9518;51.720;14.384;2023-01-16T00:34:47;3.80;1.00
18779;DHT22;9518;51.720;14.384;2023-01-16T00:37:15;3.80;1.00
18779;DHT22;9518;51.720;14.384;2023-01-16T00:39:42;3.70;60.80
18779;DHT22;9518;51.720;14.384;2023-01-16T00:42:09;3.60;99.90
18779;DHT22;9518;51.720;14.384;2023-01-16T00:44:36;3.60;99.90
18779;DHT22;9518;51.720;14.384;2023-01-16T00:47:05;3.50;1.00
18779;DHT22;9518;51.720;14.384;2023-01-16T00:49:32;3.60;99.90
18779;DHT22;9518;51.720;14.384;2023-01-16T00:51:59;3.60;99.90
18779;DHT22;9518;51.720;14.384;2023-01-16T00:54:26;3.60;99.90
18779;DHT22;9518;51.720;14.384;2023-01-16T00:56:53;3.50;1.00
18779;DHT22;9518;51.720;14.384;2023-01-16T00:59:20;3.40;1.00
18779;DHT22;9518;51.720;14.384;2023-01-16T01:01:47;3.30;1.00
18779;DHT22;9518;51.720;14.384;2023-01-16T01:04:16;3.50;1.00
18779;DHT22;9518;51.720;14.384;2023-01-16T01:06:43;3.50;1.00
18779;DHT22;9518;51.720;14.384;2023-01-16T01:09:10;3.40;1.00
18779;DHT22;9518;51.720;14.384;2023-01-16T01:11:37;3.40;1.00
18779;DHT22;9518;51.720;14.384;2023-01-16T01:14:04;3.50;1.00
18779;DHT22;9518;51.720;14.384;2023-01-16T01:16:31;3.40;1.00
18779;DHT22;9518;51.720;14.384;2023-01-16T01:18:58;3.30;11.70
18779;DHT22;9518;51.720;14.384;2023-01-16T01:21:27;3.40;1.00
18779;DHT22;9518;51.720;14.384;2023-01-16T01:23:55;3.40;1.00
18779;DHT22;9518;51.720;14.384;2023-01-16T01:26:22;3.40;1.00
18779;DHT22;9518;51.720;14.384;2023-01-16T01:28:49;3.50;1.00
18779;DHT22;9518;51.720;14.384;2023-01-16T01:31:18;3.50;1.00
18779;DHT22;9518;51.720;14.384;2023-01-16T01:33:45;3.40;1.00
18779;DHT22;9518;51.720;14.384;2023-01-16T01:36:14;3.20;1.00
18779;DHT22;9518;51.720;14.384;2023-01-16T01:38:43;3.00;1.00
18779;DHT22;9518;51.720;14.384;2023-01-16T01:41:13;2.90;99.90
18779;DHT22;9518;51.720;14.384;2023-01-16T01:43:42;2.80;1.00
18779;DHT22;9518;51.720;14.384;2023-01-16T01:46:18;2.80;99.90
18779;DHT22;9518;51.720;14.384;2023-01-16T01:48:48;2.70;1.00
18779;DHT22;9518;51.720;14.384;2023-01-16T01:51:20;2.60;1.00
18779;DHT22;9518;51.720;14.384;2023-01-16T01:53:53;2.50;1.00
18779;DHT22;9518;51.720;14.384;2023-01-16T01:56:24;2.30;1.00
18779;DHT22;9518;51.720;14.384;2023-01-16T01:58:56;2.30;1.00
18779;DHT22;9518;51.720;14.384;2023-01-16T02:01:25;2.30;99.90
18779;DHT22;9518;51.720;14.384;2023-01-16T02:03:57;2.30;1.00
18779;DHT22;9518;51.720;14.384;2023-01-16T02:06:30;2.30;1.00
18779;DHT22;9518;51.720;14.384;2023-01-16T02:09:00;2.20;1.00
18779;DHT22;9518;51.720;14.384;2023-01-16T02:11:32;2.10;1.00
18779;DHT22;9518;51.720;14.384;2023-01-16T02:14:04;1.90;1.00
18779;DHT22;9518;51.720;14.384;2023-01-16T02:16:31;1.80;1.00
18779;DHT22;9518;51.720;14.384;2023-01-16T02:19:17;1.90;1.00
18779;DHT22;9518;51.720;14.384;2023-01-16T02:22:14;2.00;1.00
18779;DHT22;9518;51.720;14.384;2023-01-16T02:25:10;2.10;1.00
18779;DHT22;9518;51.720;14.384;2023-01-16T02:31:09;2.10;1.00
18779;DHT22;9518;51.720;14.384;2023-01-16T02:33:50;2.00;1.00
18779;DHT22;9518;51.720;14.384;2023-01-16T02:36:26;2.00;1.00
18779;DHT22;9518;51.720;14.384;2023-01-16T02:39:05;2.00;1.00
18779;DHT22;9518;51.720;14.384;2023-01-16T02:41:37;2.10;93.80
18779;DHT22;9518;51.720;14.384;2023-01-16T02:44:17;2.10;1.00
18779;DHT22;9518;51.720;14.384;2023-01-16T02:46:55;2.20;1.00
18779;DHT22;9518;51.720;14.384;2023-01-16T02:49:28;2.10;1.00
18779;DHT22;9518;51.720;14.384;2023-01-16T02:52:05;2.00;1.00
18779;DHT22;9518;51.720;14.384;2023-01-16T02:54:40;2.00;1.00
18779;DHT22;9518;51.720;14.384;2023-01-16T02:57:11;2.00;1.00
18779;DHT22;9518;51.720;14.384;2023-01-16T02:59:40;2.10;1.00
18779;DHT22;9518;51.720;14.384;2023-01-16T03:02:09;2.00;1.00
18779;DHT22;9518;51.720;14.384;2023-01-16T03:04:45;1.90;1.00
18779;DHT22;9518;51.720;14.384;2023-01-16T03:10:26;1.60;1.00
18779;DHT22;9518;51.720;14.384;2023-01-16T03:13:04;1.60;1.00
18779;DHT22;9518;51.720;14.384;2023-01-16T03:15:39;1.60;1.00
18779;DHT22;9518;51.720;14.384;2023-01-16T03:18:22;1.50;1.00
18779;DHT22;9518;51.720;14.384;2023-01-16T03:20:54;1.40;1.00
18779;DHT22;9518;51.720;14.384;2023-01-16T03:23:30;1.50;1.00
18779;DHT22;9518;51.720;14.384;2023-01-16T03:26:01;1.40;1.00
18779;DHT22;9518;51.720;14.384;2023-01-16T03:28:33;1.40;1.00
18779;DHT22;9518;51.720;14.384;2023-01-16T03:31:07;1.40;1.00
18779;DHT22;9518;51.720;14.384;2023-01-16T03:33:43;1.40;1.00
18779;DHT22;9518;51.720;14.384;2023-01-16T03:36:15;1.30;1.00
18779;DHT22;9518;51.720;14.384;2023-01-16T03:38:47;1.10;1.00
18779;DHT22;9518;51.720;14.384;2023-01-16T03:41:18;1.10;1.00
18779;DHT22;9518;51.720;14.384;2023-01-16T03:43:59;1.20;1.00
18779;DHT22;9518;51.720;14.384;2023-01-16T03:46:30;1.10;1.00
18779;DHT22;9518;51.720;14.384;2023-01-16T03:49:02;1.10;1.00
18779;DHT22;9518;51.720;14.384;2023-01-16T03:51:33;1.20;1.00
18779;DHT22;9518;51.720;14.384;2023-01-16T03:54:06;1.30;1.00
18779;DHT22;9518;51.720;14.384;2023-01-16T03:56:37;1.30;1.00
18779;DHT22;9518;51.720;14.384;2023-01-16T03:59:07;1.40;1.00
18779;DHT22;9518;51.720;14.384;2023-01-16T04:01:37;1.40;1.00
18779;DHT22;9518;51.720;14.384;2023-01-16T04:04:12;1.40;1.00
18779;DHT22;9518;51.720;14.384;2023-01-16T04:06:47;1.50;1.00
18779;DHT22;9518;51.720;14.384;2023-01-16T04:09:21;1.50;1.00
18779;DHT22;9518;51.720;14.384;2023-01-16T04:11:50;1.40;1.00
18779;DHT22;9518;51.720;14.384;2023-01-16T04:14:20;1.40;1.00
18779;DHT22;9518;51.720;14.384;2023-01-16T04:16:49;1.30;1.00
18779;DHT22;9518;51.720;14.384;2023-01-16T04:19:19;1.20;1.00
18779;DHT22;9518;51.720;14.384;2023-01-16T04:21:48;1.30;1.00
18779;DHT22;9518;51.720;14.384;2023-01-16T04:24:16;1.40;1.00
18779;DHT22;9518;51.720;14.384;2023-01-16T04:26:43;1.20;1.00
18779;DHT22;9518;51.720;14.384;2023-01-16T04:29:10;1.20;1.00
18779;DHT22;9518;51.720;14.384;2023-01-16T04:31:37;1.20;1.00
18779;DHT22;9518;51.720;14.384;2023-01-16T04:34:04;1.30;1.00
18779;DHT22;9518;51.720;14.384;2023-01-16T04:36:33;1.20;1.00
18779;DHT22;9518;51.720;14.384;2023-01-16T04:39:00;1.20;1.00
18779;DHT22;9518;51.720;14.384;2023-01-16T04:41:27;1.30;1.00
18779;DHT22;9518;51.720;14.384;2023-01-16T04:44:06;1.30;1.00
18779;DHT22;9518;51.720;14.384;2023-01-16T04:46:34;1.40;1.00
18779;DHT22;9518;51.720;14.384;2023-01-16T04:49:02;1.50;1.00
18779;DHT22;9518;51.720;14.384;2023-01-16T04:51:29;1.70;1.00
18779;DHT22;9518;51.720;14.384;2023-01-16T04:53:58;1.80;99.90
18779;DHT22;9518;51.720;14.384;2023-01-16T04:56:25;1.90;1.00
18779;DHT22;9518;51.720;14.384;2023-01-16T04:58:52;1.80;99.90
18779;DHT22;9518;51.720;14.384;2023-01-16T05:01:20;1.70;1.00
18779;DHT22;9518;51.720;14.384;2023-01-16T05:03:47;1.90;99.90
18779;DHT22;9518;51.720;14.384;2023-01-16T05:06:14;1.80;99.90
18779;DHT22;9518;51.720;14.384;2023-01-16T05:08:41;1.70;99.90
18779;DHT22;9518;51.720;14.384;2023-01-16T05:11:09;1.50;1.00
18779;DHT22;9518;51.720;14.384;2023-01-16T05:13:36;1.50;99.90
18779;DHT22;9518;51.720;14.384;2023-01-16T05:16:04;1.40;1.00
18779;DHT22;9518;51.720;14.384;2023-01-16T05:18:31;1.30;1.00
18779;DHT22;9518;51.720;14.384;2023-01-16T05:20:59;1.20;1.00
18779;DHT22;9518;51.720;14.384;2023-01-16T05:23:26;1.20;1.00
18779;DHT22;9518;51.720;14.384;2023-01-16T05:25:53;1.20;1.00
18779;DHT22;9518;51.720;14.384;2023-01-16T05:28:23;1.10;1.00
18779;DHT22;9518;51.720;14.384;2023-01-16T05:30:51;1.00;1.00
18779;DHT22;9518;51.720;14.384;2023-01-16T05:33:18;1.00;1.00
18779;DHT22;9518;51.720;14.384;2023-01-16T05:35:46;1.20;1.00
18779;DHT22;9518;51.720;14.384;2023-01-16T05:38:13;1.20;1.00
18779;DHT22;9518;51.720;14.384;2023-01-16T05:40:40;1.20;1.00
18779;DHT22;9518;51.720;14.384;2023-01-16T05:43:07;1.10;1.00
18779;DHT22;9518;51.720;14.384;2023-01-16T05:45:35;1.00;1.00
18779;DHT22;9518;51.720;14.384;2023-01-16T05:48:03;0.90;1.00
18779;DHT22;9518;51.720;14.384;2023-01-16T05:50:35;0.90;1.00
18779;DHT22;9518;51.720;14.384;2023-01-16T05:53:02;0.80;1.00
18779;DHT22;9518;51.720;14.384;2023-01-16T05:55:29;0.80;1.00
18779;DHT22;9518;51.720;14.384;2023-01-16T05:57:58;0.70;1.00
18779;DHT22;9518;51.720;14.384;2023-01-16T06:00:25;0.80;99.90
18779;DHT22;9518;51.720;14.384;2023-01-16T06:02:54;0.80;98.00
18779;DHT22;9518;51.720;14.384;2023-01-16T06:05:21;0.70;46.10
18779;DHT22;9518;51.720;14.384;2023-01-16T06:07:48;0.80;99.90
18779;DHT22;9518;51.720;14.384;2023-01-16T06:10:20;0.80;99.90
18779;DHT22;9518;51.720;14.384;2023-01-16T06:12:50;0.90;99.90
18779;DHT22;9518;51.720;14.384;2023-01-16T06:15:17;0.90;91.50
18779;DHT22;9518;51.720;14.384;2023-01-16T06:17:45;0.80;8.60
18779;DHT22;9518;51.720;14.384;2023-01-16T06:20:13;0.70;45.80
18779;DHT22;9518;51.720;14.384;2023-01-16T06:22:40;0.80;65.30
18779;DHT22;9518;51.720;14.384;2023-01-16T06:25:08;0.80;27.90
18779;DHT22;9518;51.720;14.384;2023-01-16T06:27:38;0.80;1.00
18779;DHT22;9518;51.720;14.384;2023-01-16T06:30:06;0.70;1.00
18779;DHT22;9518;51.720;14.384;2023-01-16T06:32:33;0.50;1.00
18779;DHT22;9518;51.720;14.384;2023-01-16T06:35:00;0.50;94.00
18779;DHT22;9518;51.720;14.384;2023-01-16T06:37:29;0.40;99.90
18779;DHT22;9518;51.720;14.384;2023-01-16T06:39:55;0.50;99.90
18779;DHT22;9518;51.720;14.384;2023-01-16T06:42:25;0.30;99.90
18779;DHT22;9518;51.720;14.384;2023-01-16T06:44:52;0.40;99.90
18779;DHT22;9518;51.720;14.384;2023-01-16T06:47:19;0.30;99.90
18779;DHT22;9518;51.720;14.384;2023-01-16T06:49:46;0.30;99.90
18779;DHT22;9518;51.720;14.384;2023-01-16T06:52:13;0.20;99.90
18779;DHT22;9518;51.720;14.384;2023-01-16T06:54:41;0.10;99.90
18779;DHT22;9518;51.720;14.384;2023-01-16T06:57:08;0.00;99.90
18779;DHT22;9518;51.720;14.384;2023-01-16T06:59:35;0.00;99.90
18779;DHT22;9518;51.720;14.384;2023-01-16T07:02:02;0.00;99.90
18779;DHT22;9518;51.720;14.384;2023-01-16T07:04:29;0.00;99.90
18779;DHT22;9518;51.720;14.384;2023-01-16T07:06:56;0.00;99.90
18779;DHT22;9518;51.720;14.384;2023-01-16T07:09:23;0.00;99.90
18779;DHT22;9518;51.720;14.384;2023-01-16T07:11:57;0.10;99.90
18779;DHT22;9518;51.720;14.384;2023-01-16T07:14:24;0.20;99.90
18779;DHT22;9518;51.720;14.384;2023-01-16T07:17:10;0.20;99.90
18779;DHT22;9518;51.720;14.384;2023-01-16T07:19:58;0.30;99.90
18779;DHT22;9518;51.720;14.384;2023-01-16T07:22:42;0.40;99.90
18779;DHT22;9518;51.720;14.384;2023-01-16T07:25:14;0.30;99.90
18779;DHT22;9518;51.720;14.384;2023-01-16T07:27:45;0.30;99.90
18779;DHT22;9518;51.720;14.384;2023-01-16T07:30:15;0.20;99.90
18779;DHT22;9518;51.720;14.384;2023-01-16T07:32:42;0.30;99.90
18779;DHT22;9518;51.720;14.384;2023-01-16T07:35:12;0.40;99.90
18779;DHT22;9518;51.720;14.384;2023-01-16T07:37:40;0.50;99.90
18779;DHT22;9518;51.720;14.384;2023-01-16T07:40:09;0.60;99.90
18779;DHT22;9518;51.720;14.384;2023-01-16T07:42:36;0.80;99.90
18779;DHT22;9518;51.720;14.384;2023-01-16T07:45:08;1.10;99.90
18779;DHT22;9518;51.720;14.384;2023-01-16T07:47:36;1.40;99.90
18779;DHT22;9518;51.720;14.384;2023-01-16T07:50:03;1.60;99.90
18779;DHT22;9518;51.720;14.384;2023-01-16T07:52:30;1.70;99.90
18779;DHT22;9518;51.720;14.384;2023-01-16T07:54:57;1.90;99.90
18779;DHT22;9518;51.720;14.384;2023-01-16T07:57:24;2.00;99.90
18779;DHT22;9518;51.720;14.384;2023-01-16T07:59:52;2.10;99.90
18779;DHT22;9518;51.720;14.384;2023-01-16T08:02:21;2.10;99.90
18779;DHT22;9518;51.720;14.384;2023-01-16T08:04:48;2.20;99.90
18779;DHT22;9518;51.720;14.384;2023-01-16T08:07:15;2.20;99.90
18779;DHT22;9518;51.720;14.384;2023-01-16T08:09:42;2.30;99.90
18779;DHT22;9518;51.720;14.384;2023-01-16T08:12:09;2.30;99.90
18779;DHT22;9518;51.720;14.384;2023-01-16T08:14:36;2.40;99.90
18779;DHT22;9518;51.720;14.384;2023-01-16T08:17:05;2.40;99.90
18779;DHT22;9518;51.720;14.384;2023-01-16T08:19:33;2.50;99.90
18779;DHT22;9518;51.720;14.384;2023-01-16T08:22:00;2.50;99.90
18779;DHT22;9518;51.720;14.384;2023-01-16T08:24:28;2.60;99.90
18779;DHT22;9518;51.720;14.384;2023-01-16T08:26:55;2.70;1.00
18779;DHT22;9518;51.720;14.384;2023-01-16T08:29:22;2.90;1.00
18779;DHT22;9518;51.720;14.384;2023-01-16T08:31:49;3.00;99.90
18779;DHT22;9518;51.720;14.384;2023-01-16T08:34:17;3.10;99.90
18779;DHT22;9518;51.720;14.384;2023-01-16T08:36:45;3.20;99.90
18779;DHT22;9518;51.720;14.384;2023-01-16T08:39:13;3.40;99.90
18779;DHT22;9518;51.720;14.384;2023-01-16T08:41:41;3.40;1.00
18779;DHT22;9518;51.720;14.384;2023-01-16T08:44:26;3.50;1.00
18779;DHT22;9518;51.720;14.384;2023-01-16T08:47:14;3.50;1.00
18779;DHT22;9518;51.720;14.384;2023-01-16T08:50:01;3.60;99.90
18779;DHT22;9518;51.720;14.384;2023-01-16T08:52:48;3.50;99.90
18779;DHT22;9518;51.720;14.384;2023-01-16T08:55:16;3.50;94.00
18779;DHT22;9518;51.720;14.384;2023-01-16T08:57:44;3.40;1.00
18779;DHT22;9518;51.720;14.384;2023-01-16T09:00:12;3.30;99.90
18779;DHT22;9518;51.720;14.384;2023-01-16T09:02:40;3.30;1.00
18779;DHT22;9518;51.720;14.384;2023-01-16T09:05:08;3.40;99.90
18779;DHT22;9518;51.720;14.384;2023-01-16T09:07:36;3.40;1.00
18779;DHT22;9518;51.720;14.384;2023-01-16T09:10:07;3.50;1.00
18779;DHT22;9518;51.720;14.384;2023-01-16T09:12:38;3.60;99.90
18779;DHT22;9518;51.720;14.384;2023-01-16T09:15:23;3.60;99.90
18779;DHT22;9518;51.720;14.384;2023-01-16T09:17:51;3.60;1.00
18779;DHT22;9518;51.720;14.384;2023-01-16T09:20:18;3.70;1.00
18779;DHT22;9518;51.720;14.384;2023-01-16T09:22:45;3.70;1.00
18779;DHT22;9518;51.720;14.384;2023-01-16T09:25:14;3.70;1.00
18779;DHT22;9518;51.720;14.384;2023-01-16T09:27:44;3.80;1.00
18779;DHT22;9518;51.720;14.384;2023-01-16T09:30:14;3.80;1.00
18779;DHT22;9518;51.720;14.384;2023-01-16T09:32:43;3.90;1.00
18779;DHT22;9518;51.720;14.384;2023-01-16T09:35:11;3.90;1.00
18779;DHT22;9518;51.720;14.384;2023-01-16T09:37:38;4.00;1.00
18779;DHT22;9518;51.720;14.384;2023-01-16T09:40:11;4.10;1.00
18779;DHT22;9518;51.720;14.384;2023-01-16T09:42:52;4.30;99.90
18779;DHT22;9518;51.720;14.384;2023-01-16T09:45:39;4.40;1.00
18779;DHT22;9518;51.720;14.384;2023-01-16T09:48:14;4.60;1.00
18779;DHT22;9518;51.720;14.384;2023-01-16T09:50:46;4.70;1.00
18779;DHT22;9518;51.720;14.384;2023-01-16T09:53:19;4.80;99.90
18779;DHT22;9518;51.720;14.384;2023-01-16T09:56:04;4.90;99.90
18779;DHT22;9518;51.720;14.384;2023-01-16T09:58:57;5.00;99.90
18779;DHT22;9518;51.720;14.384;2023-01-16T10:01:31;5.20;1.00
18779;DHT22;9518;51.720;14.384;2023-01-16T10:04:09;5.30;1.00
18779;DHT22;9518;51.720;14.384;2023-01-16T10:06:42;5.40;1.00
18779;DHT22;9518;51.720;14.384;2023-01-16T10:09:21;5.50;1.00
18779;DHT22;9518;51.720;14.384;2023-01-16T10:11:54;5.80;1.00
18779;DHT22;9518;51.720;14.384;2023-01-16T10:14:41;5.90;1.00
18779;DHT22;9518;51.720;14.384;2023-01-16T10:17:21;6.00;1.00
18779;DHT22;9518;51.720;14.384;2023-01-16T10:20:00;6.10;1.00
18779;DHT22;9518;51.720;14.384;2023-01-16T10:22:44;6.30;1.00
18779;DHT22;9518;51.720;14.384;2023-01-16T10:25:21;6.50;1.00
18779;DHT22;9518;51.720;14.384;2023-01-16T10:27:57;6.70;99.90
18779;DHT22;9518;51.720;14.384;2023-01-16T10:30:32;6.90;99.90
18779;DHT22;9518;51.720;14.384;2023-01-16T10:33:05;7.10;99.90
18779;DHT22;9518;51.720;14.384;2023-01-16T10:35:38;7.10;99.90
18779;DHT22;9518;51.720;14.384;2023-01-16T10:38:16;7.10;99.90
18779;DHT22;9518;51.720;14.384;2023-01-16T10:40:46;7.40;99.90
18779;DHT22;9518;51.720;14.384;2023-01-16T10:43:19;7.60;99.90
18779;DHT22;9518;51.720;14.384;2023-01-16T10:46:14;7.50;99.90
18779;DHT22;9518;51.720;14.384;2023-01-16T10:48:59;7.20;99.90
18779;DHT22;9518;51.720;14.384;2023-01-16T10:51:43;6.90;99.90
18779;DHT22;9518;51.720;14.384;2023-01-16T10:54:11;6.70;99.90
18779;DHT22;9518;51.720;14.384;2023-01-16T10:56:39;6.60;99.90
18779;DHT22;9518;51.720;14.384;2023-01-16T10:59:09;6.40;99.90
18779;DHT22;9518;51.720;14.384;2023-01-16T11:01:39;6.30;99.90
18779;DHT22;9518;51.720;14.384;2023-01-16T11:04:10;6.20;99.90
18779;DHT22;9518;51.720;14.384;2023-01-16T11:06:38;6.20;99.90
18779;DHT22;9518;51.720;14.384;2023-01-16T11:09:17;6.10;99.90
18779;DHT22;9518;51.720;14.384;2023-01-16T11:11:45;6.10;99.90
18779;DHT22;9518;51.720;14.384;2023-01-16T11:14:44;6.00;99.90
18779;DHT22;9518;51.720;14.384;2023-01-16T11:17:32;6.00;99.90
18779;DHT22;9518;51.720;14.384;2023-01-16T11:20:19;5.90;99.90
18779;DHT22;9518;51.720;14.384;2023-01-16T11:22:50;5.80;99.90
18779;DHT22;9518;51.720;14.384;2023-01-16T11:25:22;5.80;99.90
18779;DHT22;9518;51.720;14.384;2023-01-16T11:27:50;5.80;99.90
18779;DHT22;9518;51.720;14.384;2023-01-16T11:30:20;5.80;99.90
18779;DHT22;9518;51.720;14.384;2023-01-16T11:32:54;5.80;99.90
18779;DHT22;9518;51.720;14.384;2023-01-16T11:35:29;5.80;99.90
18779;DHT22;9518;51.720;14.384;2023-01-16T11:37:59;5.80;99.90
18779;DHT22;9518;51.720;14.384;2023-01-16T11:40:30;5.70;99.90
18779;DHT22;9518;51.720;14.384;2023-01-16T11:42:58;5.70;99.90
18779;DHT22;9518;51.720;14.384;2023-01-16T11:45:44;5.70;99.90
18779;DHT22;9518;51.720;14.384;2023-01-16T11:48:41;5.70;99.90
18779;DHT22;9518;51.720;14.384;2023-01-16T11:51:13;5.70;99.90
18779;DHT22;9518;51.720;14.384;2023-01-16T11:53:43;5.70;99.90
18779;DHT22;9518;51.720;14.384;2023-01-16T11:56:24;5.80;99.90
18779;DHT22;9518;51.720;14.384;2023-01-16T11:59:01;5.80;99.90
18779;DHT22;9518;51.720;14.384;2023-01-16T12:01:47;5.70;99.90
18779;DHT22;9518;51.720;14.384;2023-01-16T12:04:41;5.70;99.90
18779;DHT22;9518;51.720;14.384;2023-01-16T12:07:38;5.70;99.90
18779;DHT22;9518;51.720;14.384;2023-01-16T12:10:15;5.70;99.90
18779;DHT22;9518;51.720;14.384;2023-01-16T12:12:53;5.60;99.90
18779;DHT22;9518;51.720;14.384;2023-01-16T12:15:50;5.60;99.90
18779;DHT22;9518;51.720;14.384;2023-01-16T12:18:27;5.60;99.90
18779;DHT22;9518;51.720;14.384;2023-01-16T12:21:01;5.50;99.90
18779;DHT22;9518;51.720;14.384;2023-01-16T12:23:48;5.40;99.90
18779;DHT22;9518;51.720;14.384;2023-01-16T12:26:22;5.50;1.00
18779;DHT22;9518;51.720;14.384;2023-01-16T12:29:15;5.40;1.00
18779;DHT22;9518;51.720;14.384;2023-01-16T12:32:14;5.40;1.00
18779;DHT22;9518;51.720;14.384;2023-01-16T12:34:57;5.30;1.00
18779;DHT22;9518;51.720;14.384;2023-01-16T12:37:47;5.30;1.00
18779;DHT22;9518;51.720;14.384;2023-01-16T12:40:28;5.40;1.00
18779;DHT22;9518;51.720;14.384;2023-01-16T12:43:08;5.50;1.00
18779;DHT22;9518;51.720;14.384;2023-01-16T12:45:51;5.50;99.90
18779;DHT22;9518;51.720;14.384;2023-01-16T12:48:50;5.60;99.90
18779;DHT22;9518;51.720;14.384;2023-01-16T12:51:40;5.60;99.90
18779;DHT22;9518;51.720;14.384;2023-01-16T12:54:32;5.60;99.90
18779;DHT22;9518;51.720;14.384;2023-01-16T12:57:11;5.70;99.90
18779;DHT22;9518;51.720;14.384;2023-01-16T12:59:45;5.70;99.90
18779;DHT22;9518;51.720;14.384;2023-01-16T13:02:22;5.70;99.90
18779;DHT22;9518;51.720;14.384;2023-01-16T13:04:53;5.80;99.90
18779;DHT22;9518;51.720;14.384;2023-01-16T13:07:25;5.80;99.90
18779;DHT22;9518;51.720;14.384;2023-01-16T13:10:03;5.80;99.90
18779;DHT22;9518;51.720;14.384;2023-01-16T13:12:57;5.80;99.90
18779;DHT22;9518;51.720;14.384;2023-01-16T13:15:45;5.90;99.90
18779;DHT22;9518;51.720;14.384;2023-01-16T13:18:19;5.90;99.90
18779;DHT22;9518;51.720;14.384;2023-01-16T13:20:51;5.90;99.90
18779;DHT22;9518;51.720;14.384;2023-01-16T13:23:24;5.90;99.90
18779;DHT22;9518;51.720;14.384;2023-01-16T13:25:58;5.90;99.90
18779;DHT22;9518;51.720;14.384;2023-01-16T13:28:37;5.90;99.90
18779;DHT22;9518;51.720;14.384;2023-01-16T13:31:20;5.80;99.90
18779;DHT22;9518;51.720;14.384;2023-01-16T13:33:55;5.80;99.90
18779;DHT22;9518;51.720;14.384;2023-01-16T13:36:44;5.80;99.90
18779;DHT22;9518;51.720;14.384;2023-01-16T13:42:38;5.80;99.90
18779;DHT22;9518;51.720;14.384;2023-01-16T13:45:22;5.80;99.90
18779;DHT22;9518;51.720;14.384;2023-01-16T13:48:10;5.80;99.90
18779;DHT22;9518;51.720;14.384;2023-01-16T13:50:38;5.90;99.90
18779;DHT22;9518;51.720;14.384;2023-01-16T13:53:07;5.90;99.90
18779;DHT22;9518;51.720;14.384;2023-01-16T13:55:37;5.90;99.90
18779;DHT22;9518;51.720;14.384;2023-01-16T13:58:14;5.90;99.90
18779;DHT22;9518;51.720;14.384;2023-01-16T14:00:43;5.90;99.90
18779;DHT22;9518;51.720;14.384;2023-01-16T14:03:20;5.90;99.90
18779;DHT22;9518;51.720;14.384;2023-01-16T14:05:49;5.90;99.90
18779;DHT22;9518;51.720;14.384;2023-01-16T14:08:29;5.80;99.90
18779;DHT22;9518;51.720;14.384;2023-01-16T14:14:32;5.90;99.90
18779;DHT22;9518;51.720;14.384;2023-01-16T14:17:19;5.80;99.90
18779;DHT22;9518;51.720;14.384;2023-01-16T14:19:57;5.80;99.90
18779;DHT22;9518;51.720;14.384;2023-01-16T14:22:26;5.80;99.90
18779;DHT22;9518;51.720;14.384;2023-01-16T14:25:21;5.70;99.90
18779;DHT22;9518;51.720;14.384;2023-01-16T14:27:51;5.70;99.90
18779;DHT22;9518;51.720;14.384;2023-01-16T14:30:23;5.70;99.90
18779;DHT22;9518;51.720;14.384;2023-01-16T14:32:54;5.60;99.90
18779;DHT22;9518;51.720;14.384;2023-01-16T14:35:25;5.60;99.90
18779;DHT22;9518;51.720;14.384;2023-01-16T14:37:57;5.50;99.90
18779;DHT22;9518;51.720;14.384;2023-01-16T14:40:27;5.40;99.90
18779;DHT22;9518;51.720;14.384;2023-01-16T14:43:13;5.30;99.90
18779;DHT22;9518;51.720;14.384;2023-01-16T14:46:30;5.10;99.90
18779;DHT22;9518;51.720;14.384;2023-01-16T14:49:39;5.00;1.00
18779;DHT22;9518;51.720;14.384;2023-01-16T14:56:07;4.90;1.00
18779;DHT22;9518;51.720;14.384;2023-01-16T14:58:42;4.70;1.00
18779;DHT22;9518;51.720;14.384;2023-01-16T15:01:20;4.60;1.00
18779;DHT22;9518;51.720;14.384;2023-01-16T15:04:08;4.60;1.00
18779;DHT22;9518;51.720;14.384;2023-01-16T15:06:40;4.70;1.00
18779;DHT22;9518;51.720;14.384;2023-01-16T15:09:13;4.60;1.00
18779;DHT22;9518;51.720;14.384;2023-01-16T15:11:47;4.40;1.00
18779;DHT22;9518;51.720;14.384;2023-01-16T15:14:18;4.40;1.00
18779;DHT22;9518;51.720;14.384;2023-01-16T15:17:01;4.20;1.00
18779;DHT22;9518;51.720;14.384;2023-01-16T15:20:19;4.20;1.00
18779;DHT22;9518;51.720;14.384;2023-01-16T15:23:15;4.20;1.00
18779;DHT22;9518;51.720;14.384;2023-01-16T15:25:59;4.00;1.00
18779;DHT22;9518;51.720;14.384;2023-01-16T15:28:37;3.90;1.00
18779;DHT22;9518;51.720;14.384;2023-01-16T15:31:09;3.70;99.90
18779;DHT22;9518;51.720;14.384;2023-01-16T15:33:37;3.70;99.90
18779;DHT22;9518;51.720;14.384;2023-01-16T15:36:22;3.70;99.90
18779;DHT22;9518;51.720;14.384;2023-01-16T15:38:52;3.60;99.90
18779;DHT22;9518;51.720;14.384;2023-01-16T15:41:23;3.60;99.90
18779;DHT22;9518;51.720;14.384;2023-01-16T15:44:15;3.50;99.90
18779;DHT22;9518;51.720;14.384;2023-01-16T15:47:30;3.40;99.90
18779;DHT22;9518;51.720;14.384;2023-01-16T15:50:08;3.50;99.90
18779;DHT22;9518;51.720;14.384;2023-01-16T15:52:39;3.50;99.90
18779;DHT22;9518;51.720;14.384;2023-01-16T15:55:17;3.40;99.90
18779;DHT22;9518;51.720;14.384;2023-01-16T15:57:49;3.50;99.90
18779;DHT22;9518;51.720;14.384;2023-01-16T16:00:29;3.40;99.90
18779;DHT22;9518;51.720;14.384;2023-01-16T16:02:58;3.20;99.90
18779;DHT22;9518;51.720;14.384;2023-01-16T16:05:27;3.20;1.00
18779;DHT22;9518;51.720;14.384;2023-01-16T16:07:57;3.00;1.00
18779;DHT22;9518;51.720;14.384;2023-01-16T16:10:25;3.10;1.00
18779;DHT22;9518;51.720;14.384;2023-01-16T16:13:16;3.10;1.00
18779;DHT22;9518;51.720;14.384;2023-01-16T16:15:55;3.10;1.00
18779;DHT22;9518;51.720;14.384;2023-01-16T16:18:54;3.10;1.00
18779;DHT22;9518;51.720;14.384;2023-01-16T16:21:24;3.20;1.00
18779;DHT22;9518;51.720;14.384;2023-01-16T16:24:00;3.20;1.00
18779;DHT22;9518;51.720;14.384;2023-01-16T16:26:29;3.30;1.00
18779;DHT22;9518;51.720;14.384;2023-01-16T16:29:00;3.30;1.00
18779;DHT22;9518;51.720;14.384;2023-01-16T16:31:30;3.30;1.00
18779;DHT22;9518;51.720;14.384;2023-01-16T16:34:02;3.30;1.00
18779;DHT22;9518;51.720;14.384;2023-01-16T16:36:35;3.20;1.00
18779;DHT22;9518;51.720;14.384;2023-01-16T16:39:24;3.20;1.00
18779;DHT22;9518;51.720;14.384;2023-01-16T16:41:52;3.10;1.00
18779;DHT22;9518;51.720;14.384;2023-01-16T16:44:39;3.10;1.00
18779;DHT22;9518;51.720;14.384;2023-01-16T16:49:57;3.20;1.00
18779;DHT22;9518;51.720;14.384;2023-01-16T16:52:35;3.30;99.90